Nearby METAR Reports

 

KSJC - San Jose, California, USA
Distance from station: NE 9mi, 14km
Updated: Tue, 21-Feb-2017 8:53pm CST
Rain, Overcast
Rain, Overcast
 Wind from WNW
Wind: WNW 12 mph , 19 km/h
Temperature: 54°F , 12°C
Dew Point: 48°F , 9°C
Humidity: 82%
Barometer: 30.21 inHg , 1023 hPa
Summary: Rain
Clouds: Overcast
Visibility: 6 miles , 10 km
Cloud details: Few Clouds 800 ft
Mostly cloudy 3200 ft
Overcast 5000 ft
2017/02/22 02:53 KSJC 220253Z 29010KT 6SM RA FEW008 BKN032 OVC050 12/09 A3021 RMK AO2 RAB49 SLP229 P0001 60001 T01170089 53010
KNUQ - Moffett Nas/Mtn, California, USA
Distance from station: N 9mi, 14km
Updated: Tue, 21-Feb-2017 8:56pm CST
Light rain, Overcast
Light rain, Overcast
 Wind from SSE
Wind: SSE 3 mph , 6 km/h
Temperature: 52°F , 11°C
Dew Point: 50°F , 10°C
Humidity: 94%
Barometer: 30.23 inHg , 1023.7 hPa
Summary: Light rain
Clouds: Overcast
Visibility: 8 miles , 13 km
Cloud details: Few Clouds 3600 ft
Overcast 5000 ft
2017/02/22 02:56 KNUQ 220256Z 16003KT 8SM -RA FEW036 OVC050 11/10 A3023 RMK AO2 RAB28 SLP238 P0006 60006 T01060100 53013
KPAO - Palo Alto, California, USA
Distance from station: NNW 14mi, 23km
Updated: Tue, 21-Feb-2017 8:47pm CST
Rain, Mostly cloudy
Rain, Mostly cloudy
 Wind from calm
Wind: Calm
Temperature: 52°F , 11°C
Dew Point: 50°F , 10°C
Humidity: 94%
Barometer: 30.21 inHg , 1023 hPa
Summary: Rain
Clouds: Mostly cloudy
Visibility: 6 miles , 10 km
Cloud details: Few Clouds 1500 ft
Mostly cloudy 3000 ft
2017/02/22 02:47 KPAO 220247Z 00000KT 6SM RA FEW015 BKN030 11/10 A3021
 
KRHV - San Jose/Reid, California, USA
Distance from station: ENE 12mi, 19km
Updated: Tue, 21-Feb-2017 8:52pm CST
Mostly cloudy
Mostly cloudy
 Wind from WNW
Wind: WNW 12 mph , 19 km/h
Temperature: 54°F , 12°C
Dew Point: 48°F , 9°C
Humidity: 82%
Barometer: 30.22 inHg , 1023.4 hPa
Clouds: Mostly cloudy
Visibility: 10 miles , 16 km
Cloud details: Mostly cloudy 4000 ft
2017/02/22 02:52 KRHV 220252Z 30010KT 10SM BKN040 12/09 A3022
KOAK - Oakland, California, USA
Distance from station: NNW 31mi, 50km
Updated: Tue, 21-Feb-2017 8:53pm CST
Light rain, Overcast
Light rain, Overcast
 Wind from WSW
Wind: WSW 3 mph , 6 km/h
Temperature: 54°F , 12°C
Dew Point: 52°F , 11°C
Humidity: 94%
Barometer: 30.21 inHg , 1023 hPa
Summary: Light rain
Clouds: Overcast
Visibility: 10 miles , 16 km
Cloud details: Few Clouds 1700 ft
Partly cloudy 4500 ft
Overcast 6000 ft
2017/02/22 02:53 KOAK 220253Z 25003KT 10SM -RA FEW017 SCT045 OVC060 12/11 A3021 RMK AO2 RAE00B01 SLP230 P0006 60010 T01220111 53006
KSQL - San Carlos Airpo, California, USA
Distance from station: NW 21mi, 34km
Updated: Tue, 21-Feb-2017 8:50pm CST
Overcast
Overcast
 Wind from calm
Wind: Calm
Temperature: 52°F , 11°C
Dew Point: 48°F , 9°C
Humidity: 88%
Barometer: 30.22 inHg , 1023.4 hPa
Clouds: Overcast
Visibility: 10 miles , 16 km
Cloud details: Partly cloudy 3400 ft
Mostly cloudy 4600 ft
Overcast 7000 ft
2017/02/22 02:50 KSQL 220250Z 00000KT 10SM SCT034 BKN046 OVC070 11/09 A3022
 
KSFO - San Francisco, California, USA
Distance from station: NW 30mi, 49km
Updated: Tue, 21-Feb-2017 9:34pm CST
Light rain, Overcast
Light rain, Overcast
 Wind from WSW
Wind: WSW 6 mph , 9 km/h
Temperature: 52°F , 11°C
Dew Point: 46°F , 8°C
Humidity: 82%
Barometer: 30.22 inHg , 1023.4 hPa
Summary: Light rain
Clouds: Overcast
Visibility: 9 miles , 14 km
Cloud details: Few Clouds 1800 ft
Mostly cloudy 3300 ft
Overcast 4100 ft
2017/02/22 03:34 KSFO 220334Z 24005KT 9SM -RA FEW018 BKN033 OVC041 11/08 A3022 RMK AO2 P0003 T01110078 $
KE16 - San Martin, California, USA
Distance from station: ESE 27mi, 43km
Updated: Tue, 21-Feb-2017 9:35pm CST
Partly cloudy
Partly cloudy
 Wind from calm
Wind: Calm
Temperature: 50°F , 10°C
Dew Point: 48°F , 9°C
Humidity: 94%
Barometer: 30.23 inHg , 1023.7 hPa
Clouds: Partly cloudy
Visibility: 10 miles , 16 km
Cloud details: Few Clouds 1500 ft
Partly cloudy 6000 ft
2017/02/22 03:35 KE16 220335Z AUTO 00000KT 10SM FEW015 SCT060 10/09 A3023 RMK AO2 PWINO PNO
KWVI - Watsonville, California, USA
Distance from station: SSE 27mi, 44km
Updated: Tue, 21-Feb-2017 9:45pm CST
Light rain, Overcast
Light rain, Overcast
 Wind from WSW
Wind: WSW 16 mph , 26 km/h, Gust: 20 mph , 31 km/h
Temperature: 52°F , 11°C
Dew Point: 48°F , 9°C
Humidity: 88%
Barometer: 30.24 inHg , 1024 hPa
Summary: Light rain
Clouds: Overcast
Visibility: 7 miles , 11 km
Cloud details: Mostly cloudy 2000 ft
Mostly cloudy 3000 ft
Overcast 3900 ft
2017/02/22 03:45 KWVI 220345Z AUTO 24014G17KT 7SM -RA BKN020 BKN030 OVC039 11/09 A3024 RMK AO2 RAB44 P0001 T01110094 $
 
KHAF - Half Moon Bay, California, USA
Distance from station: WNW 31mi, 50km
Updated: Tue, 21-Feb-2017 9:35pm CST
Light rain, Overcast
Light rain, Overcast
 Wind from NNE
Wind: NNE 3 mph , 6 km/h
Temperature: 50°F , 10°C
Dew Point: 48°F , 9°C
Humidity: 94%
Barometer: 30.23 inHg , 1023.7 hPa
Summary: Light rain
Clouds: Overcast
Visibility: 9 miles , 14 km
Cloud details: Few Clouds 3200 ft
Mostly cloudy 4700 ft
Overcast 7500 ft
2017/02/22 03:35 KHAF 220335Z AUTO 02003KT 9SM -RA FEW032 BKN047 OVC075 10/09 A3023 RMK AO2 P0005
KHWD - Hayward, California, USA
Distance from station: N 28mi, 44km
Updated: Tue, 21-Feb-2017 8:54pm CST
Overcast
Overcast
 Wind from WNW
Wind: WNW 3 mph , 6 km/h
Temperature: 54°F , 12°C
Dew Point: 46°F , 8°C
Humidity: 77%
Barometer: 30.21 inHg , 1023 hPa
Clouds: Overcast
Visibility: 10 miles , 16 km
Cloud details: Partly cloudy 5000 ft
Mostly cloudy 6500 ft
Overcast 11000 ft
2017/02/22 02:54 KHWD 220254Z 30003KT 10SM SCT050 BKN065 OVC110 12/08 A3021 RMK AO2 RAB03E46 SLP238 P0003 60006 T01170083 53006
KLVK - Livermore, California, USA
Distance from station: NNE 31mi, 51km
Updated: Tue, 21-Feb-2017 8:53pm CST
Rain, Mist, Mostly cloudy
Rain, Mist, Mostly cloudy
 Wind from SW
Wind: SW 5 mph , 7 km/h
Temperature: 50°F , 10°C
Wind Chill: 48°F , 9°C
Dew Point: 46°F , 8°C
Humidity: 88%
Barometer: 30.20 inHg , 1022.7 hPa
Summary: Rain, Mist
Clouds: Mostly cloudy
Visibility: 5 miles , 8 km
Cloud details: Mostly cloudy 2900 ft
2017/02/22 02:53 KLVK 220253Z 22004KT 5SM RA BR BKN029 10/08 A3020 RMK AO2 SLP227 P0009 60023 T01000083 53009